NWS Home NWS Lubbock West Texas Mesonet Latest Conditions as of 0503 PM, Thu Sep 29, 2016

Latest   N   C   S   Daily Sum   3hrΔ   24hrΔ   Soil Data 
Site Map   24hr Precip   72hr Precip   Google Plot


Station Time of Last Temp Dew Pt. RH Wind Direction Wind Speed Wind Gust Max Wind Max Temp Min Temp Max RH Min RH Altimeter 1HR Rain Today's Rain Solar Rad
Abernathy 5ENE  04:55 PM 75 47 38% E48 18 mph 55° @ 1230 AM 75 47 97 38 30.34" 0 0 533
Aiken 3WSW  04:55 PM 75 49 41% E57 15 mph 90° @ 1152 AM 75 48 92 38 30.35" 0 0 517
Amarillo 15NNW   04:55 PM 78 48 34% E811 16 mph 121° @ 1208 AM 79 48 94 32 30.32" 0 0 521
Amarillo 7SSE  04:55 PM 77 45 32% SE79 17 mph 130° @ 1140 AM 78 46 86 31 30.34" 0 0 519
Amarillo 9NNE  04:55 PM 78 48 36% E1012 16 mph 144° @ 0122 AM 78 44 100 34 30.32" 0 0 485
Amherst 1NE  04:55 PM 75 47 39% SE812 17 mph 88° @ 1120 AM 75 50 95 37 30.34" 0 0 548
Andrews 2E  04:55 PM 79 46 32% E68 19 mph 78° @ 0210 PM 79 54 84 31 30.31" 0 0 530
Anton 6SSW  04:55 PM 74 49 43% SE710 17 mph 101° @ 1220 PM 77 49 95 39 30.33" 0 0 282
Aspermont 3NE  04:55 PM 76 45 33% NE712 19 mph 40° @ 1235 PM 77 51 91 33 30.28" 0 0 531
Big Bend NP - Persimmon Gap  04:55 PM 82 60 47% NE1114 24 mph 67° @ 0323 PM 84 67 82 44 30.21" 0 0 204
Big Lake 1WNW  04:55 PM 80 52 38% NE1114 17 mph 46° @ 0152 PM 81 54 85 36 30.28" 0 0 442
Bootleg 11WNW  04:55 PM 77 42 29% S79 16 mph 155° @ 0119 PM 78 49 89 29 30.38" 0 0 354
Boys Ranch 1WSW  04:55 PM 81 46 29% E911 14 mph 100° @ 0451 PM 82 47 92 28 30.30" 0 0 507
Brownfield 2S  04:55 PM 73 48 41% E612 20 mph 83° @ 1255 PM 74 53 87 41 30.33" 0 0 460
Canadian 6E  04:55 PM 73 45 36% SE68 18 mph 82° @ 1148 AM 74 45 93 32 30.30" 0 0 360
Caprock Canyons State Park  04:55 PM 74 45 36% E911 14 mph 81° @ 0419 PM 74 53 80 32 30.32" 0 0 431
Childress 2NNE  04:55 PM 73 45 37% NE710 16 mph 54° @ 1215 PM 74 49 93 34 30.30" 0 0 493
Clarendon 2WSW  04:55 PM 73 46 38% NE69 13 mph 68° @ 1055 AM 74 46 90 37 30.32" 0 0 530
Claude 12SW  04:55 PM 75 48 39% E58 15 mph 93° @ 0933 AM 76 47 86 37 30.33" 0 0 512
Clyde 2WNW  04:55 PM 73 47 39% NE911 19 mph 62° @ 0417 AM 74 56 83 38 30.28" 0 0 494
Coyanosa 2N  04:55 PM 85 45 25% E1215 19 mph 83° @ 0148 PM 87 56 94 24 30.25" 0 0 477
Dell City  04:55 PM 79 50 36% SE1822 27 mph 136° @ 0452 PM 82 54 92 28 30.27" 0 0 563
Denver City 7WNW  04:55 PM 76 45 34% E815 20 mph 81° @ 1140 AM 77 47 89 33 30.33" 0 0 535
Dimmitt 2NE  04:55 PM 75 47 38% S712 17 mph 99° @ 0945 AM 76 47 89 37 30.35" 0 0 464
Dora NM 2SW  04:55 PM 74 46 36% SE1015 20 mph 148° @ 0310 PM 77 50 89 33 30.36" 0 0 225
Dozier 3W  04:55 PM 74 46 37% E79 15 mph 72° @ 1111 AM 75 51 82 36 30.32" 0 0 476
Floydada 2NNE  04:55 PM 74 44 35% NE48 16 mph 53° @ 0205 PM 74 47 99 35 30.33" 0 0 500
Fluvanna 3WNW  04:55 PM 73 47 39% NE79 23 mph 61° @ 0425 AM 74 55 82 38 30.30" 0 0 404
Fort Chadbourne  04:55 PM 76 52 42% NE810 19 mph 55° @ 0246 PM 77 56 96 39 30.27" 0 0 504
Fort Lancaster  04:55 PM 86 52 31% NE1216 19 mph 50° @ 0410 PM 87 55 97 27 30.21" 0 0 519
Fort Lewis CO  04:55 PM 51 49 93% NE810 20 mph 62° @ 1105 AM 61 45 95 44 30.55" 0.05 0.23 143
Fort McKavett  04:55 PM 79 55 42% NE1114 19 mph 28° @ 0217 PM 80 50 98 40 30.26" 0 0 539
Friona 2NE  04:55 PM 77 46 34% SE811 18 mph 142° @ 0240 PM 77 47 93 32 30.35" 0 0 492
Gail 2ESE  04:55 PM 76 49 39% NE610 18 mph 50° @ 1025 AM 77 52 92 38 30.29" 0 0 262
Goodlett 3W  04:55 PM 73 43 34% NE711 21 mph 35° @ 1240 PM 74 52 88 34 30.29" 0 0 490
Goodnight  04:55 PM 74 48 40% SE912 15 mph 80° @ 0355 PM 74 49 86 39 30.34" 0 0 532
Graham 5SSW  04:55 PM 74 47 38% NE812 21 mph 41° @ 0250 AM 76 56 77 36 30.31" 0 0 443
Guadalupe Mtns Natl Park  04:55 PM 69 47 46% E911 20 mph 86° @ 0356 PM 70 57 80 37 30.41" 0 0 508
Guthrie 10WSW  04:55 PM 75 45 35% NE710 18 mph 22° @ 1230 PM 76 52 88 34 30.28" 0 0 411
Hart 3N  04:55 PM 75 47 38% SE69 15 mph 112° @ 1205 PM 76 47 92 38 30.35" 0 0 531
Haskell 1NW  04:55 PM 72 45 38% NE811 18 mph 31° @ 1230 PM 73 55 90 37 30.28" 0 0 502
Hereford 2NW  04:55 PM 76 43 31% S811 15 mph 170° @ 0135 PM 77 49 83 30 30.34" 0 0 508
Hobbs NM 5NW  04:55 PM 77 46 34% SE912 21 mph 103° @ 0234 PM 78 51 78 31 30.35" 0 0 597
Jayton 1SSE  04:55 PM 74 45 36% E812 17 mph 40° @ 0225 PM 75 53 89 36 30.29" 0 0 497
Junction 1SSW  04:55 PM 83 56 40% NE1012 17 mph 48° @ 0328 PM 84 52 100 38 30.23" 0 0 467
Knox City 3NW  04:55 PM 75 42 31% NE812 19 mph 58° @ 1105 AM 76 55 81 29 30.28" 0 0 403
Lake Alan Henry 1NW  04:55 PM 76 47 36% NE911 19 mph 26° @ 0129 AM 77 55 79 34 30.29" 0 0 463
Lamesa 2SE  04:55 PM 75 50 42% E811 18 mph 77° @ 1100 AM 76 54 86 42 30.32" 0 0 500
Levelland 4S  04:55 PM 73 48 41% E710 18 mph 94° @ 0325 PM 74 48 91 37 30.34" 0 0 483
Lomax 1SSE  04:55 PM 80 49 33% E911 21 mph 47° @ 1019 AM 80 52 91 32 30.29" 0 0 577
Lubbock 3WNW TTU  04:55 PM 75 47 38% E59 15 mph 69° @ 1105 AM 77 52 92 35 30.33" 0 0 262
McLean 1E  04:55 PM 71 43 37% E47 15 mph 56° @ 1225 PM 72 47 87 36 30.32" 0 0 432
Memphis 1NE  04:55 PM 74 44 34% NE49 16 mph 53° @ 1145 AM 75 50 92 34 30.30" 0 0 425
Menard 2NW   04:55 PM 79 54 42% NE810 19 mph 2° @ 0415 PM 79 50 98 40 30.25" 0 0 488
Mertzon 3NNE  04:55 PM 80 53 40% NE1014 18 mph 61° @ 1211 PM 81 49 97 39 30.27" 0 0 478
Morton 1ENE  04:55 PM 76 47 36% SE710 16 mph 93° @ 1015 AM 76 48 92 36 30.34" 0 0 509
Muleshoe 2SSW  04:55 PM 76 46 35% SE612 17 mph 112° @ 1010 AM 77 42 98 33 30.34" 0 0 463
Northfield 1S  04:55 PM 75 46 37% NE59 18 mph 57° @ 0145 PM 75 51 90 34 30.30" 0 0 455
O'Donnell 1N  04:55 PM 74 45 36% E69 21 mph 69° @ 1050 AM 74 54 88 36 30.32" 0 0 416
Odell 4ENE  04:55 PM 73 48 42% N58 17 mph 359° @ 0325 PM 74 49 96 42 30.29" 0 0 468
Olton 6S  04:55 PM 76 46 35% SE57 15 mph 97° @ 1005 AM 76 48 91 35 30.34" 0 0 467
Paducah 10SW  04:55 PM 74 45 36% NE812 17 mph 55° @ 1230 PM 75 50 92 34 30.29" 0 0 436
Palo Duro Canyon SP Floor  04:55 PM 80 48 33% SE68 14 mph 112° @ 0937 AM 81 52 74 31 30.30" 0 0 500
Palo Duro Canyon State Park Rim  04:55 PM 78 47 33% SE57 15 mph 114° @ 0424 AM 78 53 72 33 30.34" 0 0 534
Pampa 2E  04:55 PM 71 43 38% SE36 13 mph 83° @ 1205 PM 72 46 93 37 30.34" 0 0 217
Panhandle 1SSW  04:55 PM 72 47 41% SE46 15 mph 82° @ 1221 PM 72 45 95 40 30.35" 0 0 470
Plains 3N  04:55 PM 77 46 35% SE1014 21 mph 101° @ 1105 AM 77 51 90 34 30.34" 0 0 530
Plainview 1S  04:55 PM 75 48 39% E710 16 mph 70° @ 1130 AM 75 50 87 38 30.33" 0 0 494
Post 1NE  04:55 PM 75 46 35% E711 17 mph 70° @ 1205 PM 77 54 80 34 30.30" 0 0 349
Ralls 1SE  04:55 PM 75 44 33% E813 18 mph 76° @ 1240 PM 76 49 86 32 30.33" 0 0 453
Reese Center  04:55 PM 73 45 37% E59 18 mph 88° @ 0955 AM 75 48 94 35 30.33" 0 0 229
Roaring Springs 3N  04:55 PM 75 44 34% NE812 17 mph 57° @ 1245 PM 75 51 92 33 30.31" 0 0 426
San Angelo 7NW  04:55 PM 79 50 37% NE1015 17 mph 57° @ 1005 AM 80 54 89 33 30.26" 0 0 481
Seagraves 1SW  04:55 PM 76 49 39% NE711 17 mph 85° @ 1020 AM 76 50 87 38 30.33" 0 0 487
Seminole 2NNE  04:55 PM 76 47 37% E914 18 mph 76° @ 1105 AM 76 53 87 36 30.32" 0 0 552
Seymour 3NW  04:55 PM 74 44 34% N812 18 mph 35° @ 1100 AM 75 56 83 33 30.27" 0 0 506
Sierra Blanca 1SSE  04:55 PM 80 52 38% E910 25 mph 127° @ 1246 PM 81 61 84 32 30.30" 0 0 557
Silverton 7ESE  04:55 PM 72 43 36% E57 15 mph 71° @ 0255 AM 73 47 88 36 30.34" 0 0 473
Slaton 2NE  04:55 PM 74 46 38% SE58 16 mph 92° @ 0230 PM 74 52 88 38 30.33" 0 0 332
Snyder 3E  04:55 PM 78 46 33% NE610 21 mph 43° @ 1025 AM 78 56 80 33 30.29" 0 0 418
Snyder 3SSW  04:55 PM 76 47 36% E810 23 mph 64° @ 1029 AM 77 57 76 34 30.29" 0 0 356
Spur 1W  04:55 PM 75 41 31% NE711 20 mph 58° @ 0115 PM 75 54 84 30 30.29" 0 0 405
St. Lawrence 5SW  04:55 PM 79 52 41% NE814 18 mph 82° @ 1010 AM 79 52 90 40 30.28" 0 0 435
Sterling City 4WSW  04:55 PM 79 51 37% E58 17 mph 40° @ 0248 PM 80 49 97 35 30.28" 0 0 396
Sundown 8WSW  04:55 PM 76 47 36% SE712 18 mph 92° @ 0935 AM 77 47 97 36 30.34" 0 0 441
Tahoka 3NNE  04:55 PM 74 48 40% E68 19 mph 83° @ 1118 AM 75 52 90 38 30.32" 0 0 374
Tarzan 2WNW  04:55 PM 78 47 34% E810 24 mph 61° @ 0950 AM 79 55 77 34 30.30" 0 0 502
Tatum NM 2SW  04:55 PM 78 43 30% SE1015 23 mph 132° @ 0250 PM 79 47 83 29 30.34" 0 0 528
Throckmorton 1SW  04:55 PM 73 49 42% NE810 19 mph 21° @ 0216 PM 74 54 88 39 30.27" 0 0 512
Tulia 2ENE  04:55 PM 75 49 41% E610 15 mph 84° @ 1025 AM 76 46 93 38 30.34" 0 0 472
Turkey 2WSW  04:55 PM 74 46 36% E711 15 mph 43° @ 0335 PM 75 50 89 34 30.31" 0 0 481
Umbarger 3NNE  04:55 PM 78 47 34% SE57 15 mph 133° @ 1222 AM 78 46 94 31 30.35" 0 0 514
Vigo Park  04:55 PM 75 46 36% S45 19 mph 143° @ 0433 PM 76 47 87 35 30.35" 0 0 492
Wall 1E  04:55 PM 78 52 40% NE914 17 mph 22° @ 0300 PM 79 54 89 39 30.27" 0 0 427
Welch  04:55 PM 75 48 39% NE68 18 mph 82° @ 0941 AM 76 53 93 39 30.33" 0 0 547
White River Lake 6NW  04:45 PM 76 46 36% E610 20 mph 52° @ 1215 PM 76 55 79 35 30.30" 0 0 592
Wolfforth 6SSW  04:55 PM 73 48 42% E79 19 mph 71° @ 1050 AM 74 51 89 41 30.34" 0 0 268

West Texas Mesonet Home   Site Map/Menu  NWS Lubbock Soil Data  Daily Summary Page  24hr Precip  72hr Precip  Google Plot